createdAt,value
2023-03-21T00:01:24.354Z,97090.78
2023-03-21T00:03:50.636Z,97087.88
2023-03-21T00:06:16.930Z,97080.09
2023-03-21T00:08:43.325Z,97083.94
2023-03-21T00:11:09.633Z,97080.81
2023-03-21T00:13:35.885Z,97076.28
2023-03-21T00:16:07.983Z,97083.59
2023-03-21T00:18:40.081Z,97079.53
2023-03-21T00:21:37.703Z,97074.19
2023-03-21T00:23:52.578Z,97073.38
2023-03-21T00:26:18.866Z,97070.25
2023-03-21T00:28:45.145Z,97065.13
2023-03-21T00:31:11.402Z,97062.00
2023-03-21T00:33:37.679Z,97060.38
2023-03-21T00:36:05.763Z,97064.91
2023-03-21T00:38:32.218Z,97067.78
2023-03-21T00:41:04.744Z,97061.41
2023-03-21T00:43:31.189Z,97055.84
2023-03-21T00:45:57.445Z,97055.25
2023-03-21T00:48:23.910Z,97060.34
2023-03-21T00:50:50.217Z,97057.47
2023-03-21T00:53:16.477Z,97053.97
2023-03-21T00:55:42.783Z,97050.50
2023-03-21T00:58:09.079Z,97056.19
2023-03-21T01:00:35.410Z,97053.84
2023-03-21T01:03:11.151Z,97056.28
2023-03-21T01:05:44.065Z,97057.44
2023-03-21T01:08:23.778Z,97061.44
2023-03-21T01:10:53.025Z,97058.41
2023-03-21T01:13:19.287Z,97057.22
2023-03-21T01:15:45.566Z,97063.00
2023-03-21T01:18:11.832Z,97053.84
2023-03-21T01:20:38.109Z,97061.03
2023-03-21T01:23:04.393Z,97064.16
2023-03-21T01:25:30.687Z,97056.84
2023-03-21T01:27:56.943Z,97052.19
2023-03-21T01:30:24.845Z,97051.91
2023-03-21T01:32:51.206Z,97051.53
2023-03-21T01:35:17.470Z,97049.69
2023-03-21T01:37:43.762Z,97046.72
2023-03-21T01:40:10.034Z,97053.44
2023-03-21T01:42:36.296Z,97045.19
2023-03-21T01:45:02.566Z,97040.06
2023-03-21T01:47:28.826Z,97039.56
2023-03-21T01:49:55.075Z,97036.78
2023-03-21T01:52:35.377Z,97039.88
2023-03-21T01:55:02.584Z,97046.69
2023-03-21T01:57:35.342Z,97043.66
2023-03-21T02:00:07.454Z,97043.56
2023-03-21T02:02:33.743Z,97034.91
2023-03-21T02:04:59.997Z,97036.53
2023-03-21T02:07:26.256Z,97044.97
2023-03-21T02:09:52.548Z,97038.25
2023-03-21T02:12:18.799Z,97035.09
2023-03-21T02:14:45.070Z,97036.72
2023-03-21T02:17:11.334Z,97038.41
2023-03-21T02:19:47.662Z,97035.75
2023-03-21T02:22:18.856Z,97030.06
2023-03-21T02:24:48.957Z,97031.25
2023-03-21T02:27:20.686Z,97037.03
2023-03-21T02:29:46.997Z,97039.75
2023-03-21T02:32:22.575Z,97041.66
2023-03-21T02:34:54.569Z,97037.16
2023-03-21T02:37:23.622Z,97032.06
2023-03-21T02:39:55.090Z,97025.34
2023-03-21T02:42:21.369Z,97026.97
2023-03-21T02:44:47.642Z,97030.81
2023-03-21T02:47:14.047Z,97027.34
2023-03-21T02:49:40.402Z,97032.06
2023-03-21T02:52:15.662Z,97031.25
2023-03-21T02:54:48.562Z,97029.34
2023-03-21T02:57:15.089Z,97025.19
2023-03-21T02:59:51.667Z,97026.38
2023-03-21T03:02:19.982Z,97029.63
2023-03-21T03:04:46.263Z,97030.00
2023-03-21T03:07:12.514Z,97027.56
2023-03-21T03:09:38.784Z,97024.75
2023-03-21T03:12:05.221Z,97023.84
2023-03-21T03:17:17.749Z,97036.13
2023-03-21T03:19:50.011Z,97030.81
2023-03-21T03:22:16.990Z,97028.16
2023-03-21T03:24:43.433Z,97027.56
2023-03-21T03:27:09.783Z,97030.44
2023-03-21T03:29:37.301Z,97026.38
2023-03-21T03:32:03.588Z,97029.91
2023-03-21T03:34:30.091Z,97034.72
2023-03-21T03:36:56.496Z,97024.59
2023-03-21T03:39:22.894Z,97028.28
2023-03-21T03:42:15.384Z,97024.31
2023-03-21T03:44:35.451Z,97027.03
2023-03-21T03:47:01.738Z,97026.22
2023-03-21T03:49:28.011Z,97027.41
2023-03-21T03:51:54.299Z,97022.09
2023-03-21T03:54:20.634Z,97019.72
2023-03-21T03:56:46.913Z,97022.38
2023-03-21T03:59:13.175Z,97020.53
2023-03-21T04:01:39.489Z,97030.94
2023-03-21T04:04:12.929Z,97025.19
2023-03-21T04:06:39.739Z,97020.81
2023-03-21T04:09:18.572Z,97026.75
2023-03-21T04:11:46.605Z,97024.75
2023-03-21T04:14:13.842Z,97021.72
2023-03-21T04:16:40.163Z,97022.22
2023-03-21T04:19:06.472Z,97021.41
2023-03-21T04:21:32.766Z,97021.03
2023-03-21T04:23:59.047Z,97022.28
2023-03-21T04:26:25.294Z,97024.13
2023-03-21T04:28:51.556Z,97027.00
2023-03-21T04:31:25.686Z,97027.81
2023-03-21T04:33:52.556Z,97029.06
2023-03-21T04:36:18.855Z,97028.63
2023-03-21T04:38:45.140Z,97026.78
2023-03-21T04:41:11.402Z,97021.09
2023-03-21T04:43:37.666Z,97026.19
2023-03-21T04:46:03.938Z,97025.16
2023-03-21T04:48:30.223Z,97024.34
2023-03-21T04:50:56.491Z,97029.81
2023-03-21T04:53:22.750Z,97024.13
2023-03-21T04:55:52.429Z,97029.88
2023-03-21T04:58:19.769Z,97031.72
2023-03-21T05:00:46.037Z,97026.41
2023-03-21T05:03:12.312Z,97032.53
2023-03-21T05:05:38.929Z,97030.38
2023-03-21T05:08:05.377Z,97031.41
2023-03-21T05:10:31.664Z,97031.63
2023-03-21T05:12:57.945Z,97032.06
2023-03-21T05:15:24.202Z,97034.50
2023-03-21T05:17:50.441Z,97028.16
2023-03-21T05:20:16.699Z,97028.53
2023-03-21T05:22:42.966Z,97031.41
2023-03-21T05:25:09.249Z,97024.03
2023-03-21T05:27:35.502Z,97021.59
2023-03-21T05:30:01.783Z,97020.78
2023-03-21T05:32:28.066Z,97015.84
2023-03-21T05:34:54.350Z,97023.44
2023-03-21T05:37:20.599Z,97011.56
2023-03-21T05:39:46.862Z,97018.56
2023-03-21T05:42:13.134Z,97022.63
2023-03-21T05:44:39.375Z,97014.06
2023-03-21T05:47:05.667Z,97015.09
2023-03-21T05:49:31.924Z,97017.53
2023-03-21T05:51:58.162Z,97014.66
2023-03-21T05:54:24.404Z,97017.31
2023-03-21T05:56:50.671Z,97018.94
2023-03-21T05:59:16.977Z,97021.00
2023-03-21T06:01:43.235Z,97031.13
2023-03-21T06:04:09.574Z,97032.06
2023-03-21T06:06:35.899Z,97031.03
2023-03-21T06:09:02.177Z,97036.56
2023-03-21T06:11:28.463Z,97041.69
2023-03-21T06:13:54.708Z,97036.94
2023-03-21T06:16:21.076Z,97033.25
2023-03-21T06:18:47.359Z,97037.38
2023-03-21T06:21:13.621Z,97053.72
2023-03-21T06:23:39.893Z,97047.97
2023-03-21T06:26:06.219Z,97043.69
2023-03-21T06:28:32.478Z,97049.00
2023-03-21T06:30:58.771Z,97049.81
2023-03-21T06:33:25.070Z,97040.38
2023-03-21T06:35:51.397Z,97035.66
2023-03-21T06:38:17.832Z,97039.94
2023-03-21T06:40:44.103Z,97046.66
2023-03-21T06:43:10.411Z,97049.53
2023-03-21T06:45:37.041Z,97049.75
2023-03-21T06:48:03.566Z,97051.38
2023-03-21T06:50:29.820Z,97059.13
2023-03-21T06:52:56.058Z,97057.28
2023-03-21T06:55:22.325Z,97057.28
2023-03-21T06:57:48.610Z,97062.59
2023-03-21T07:00:14.873Z,97056.84
2023-03-21T07:02:41.182Z,97059.06
2023-03-21T07:05:07.485Z,97063.97
2023-03-21T07:07:33.813Z,97061.22
2023-03-21T07:10:00.137Z,97059.16
2023-03-21T07:12:26.402Z,97069.97
2023-03-21T07:14:52.668Z,97070.56
2023-03-21T07:17:18.969Z,97064.78
2023-03-21T07:19:45.230Z,97067.81
2023-03-21T07:22:11.523Z,97062.88
2023-03-21T07:24:37.793Z,97061.63
2023-03-21T07:27:04.059Z,97063.63
2023-03-21T07:29:30.399Z,97059.25
2023-03-21T07:31:56.724Z,97064.50
2023-03-21T07:34:23.084Z,97063.63
2023-03-21T07:36:49.346Z,97074.19
2023-03-21T07:39:15.627Z,97074.34
2023-03-21T07:41:41.892Z,97070.19
2023-03-21T07:44:08.164Z,97077.53
2023-03-21T07:46:34.452Z,97082.75
2023-03-21T07:49:00.736Z,97082.09
2023-03-21T07:51:27.047Z,97081.41
2023-03-21T07:53:53.320Z,97084.22
2023-03-21T07:56:19.590Z,97086.22
2023-03-21T07:58:45.893Z,97081.38
2023-03-21T08:01:12.230Z,97086.03
2023-03-21T08:03:38.482Z,97085.16
2023-03-21T08:06:04.778Z,97086.91
2023-03-21T08:08:31.022Z,97081.75
2023-03-21T08:10:57.286Z,97078.97
2023-03-21T08:13:23.548Z,97075.63
2023-03-21T08:15:49.818Z,97077.16
2023-03-21T08:18:16.083Z,97074.38
2023-03-21T08:20:42.334Z,97075.06
2023-03-21T08:23:08.602Z,97077.41
2023-03-21T08:25:34.930Z,97072.91
2023-03-21T08:28:01.271Z,97079.53
2023-03-21T08:30:27.586Z,97085.44
2023-03-21T08:32:53.927Z,97078.16
2023-03-21T08:35:20.251Z,97072.47
2023-03-21T08:37:46.533Z,97074.66
2023-03-21T08:40:12.786Z,97068.16
2023-03-21T08:42:39.078Z,97065.94
2023-03-21T08:45:05.384Z,97062.56
2023-03-21T08:47:31.655Z,97055.94
2023-03-21T08:49:59.171Z,97059.53
2023-03-21T08:52:25.538Z,97064.94
2023-03-21T08:54:51.805Z,97057.41
2023-03-21T08:57:18.059Z,97057.16
2023-03-21T08:59:44.310Z,97059.25
2023-03-21T09:02:10.646Z,97048.19
2023-03-21T09:04:36.976Z,97052.97
2023-03-21T09:07:03.262Z,97055.88
2023-03-21T09:09:29.518Z,97052.81
2023-03-21T09:11:55.764Z,97046.03
2023-03-21T09:14:28.478Z,97050.91
2023-03-21T09:16:55.107Z,97048.09
2023-03-21T09:19:21.393Z,97042.75
2023-03-21T09:21:47.690Z,97047.44
2023-03-21T09:24:13.931Z,97045.66
2023-03-21T09:26:40.186Z,97046.88
2023-03-21T09:29:06.466Z,97042.31
2023-03-21T09:31:32.765Z,97052.31
2023-03-21T09:33:59.552Z,97046.22
2023-03-21T09:36:25.850Z,97049.06
2023-03-21T09:38:52.113Z,97049.47
2023-03-21T09:41:18.390Z,97046.22
2023-03-21T09:43:44.652Z,97050.38
2023-03-21T09:46:10.935Z,97049.66
2023-03-21T09:48:39.671Z,97052.25
2023-03-21T09:51:10.399Z,97051.13
2023-03-21T09:53:36.681Z,97042.28
2023-03-21T09:56:02.979Z,97044.00
2023-03-21T09:58:29.257Z,97042.13
2023-03-21T10:00:55.669Z,97045.63
2023-03-21T10:03:21.969Z,97037.19
2023-03-21T10:05:48.272Z,97030.69
2023-03-21T10:08:14.525Z,97029.06
2023-03-21T10:10:40.921Z,97022.59
2023-03-21T10:13:07.174Z,97024.69
2023-03-21T10:15:33.413Z,97010.47
2023-03-21T10:17:59.692Z,97003.75
2023-03-21T10:20:25.983Z,97007.38
2023-03-21T10:22:52.264Z,97003.97
2023-03-21T10:25:18.571Z,96999.34
2023-03-21T10:27:44.875Z,96995.84
2023-03-21T10:30:11.138Z,97006.38
2023-03-21T10:32:37.448Z,96997.41
2023-03-21T10:35:03.773Z,96992.66
2023-03-21T10:37:30.038Z,96992.50
2023-03-21T10:39:56.305Z,96991.19
2023-03-21T10:42:22.570Z,96994.34
2023-03-21T10:44:48.907Z,96989.31
2023-03-21T10:47:15.331Z,96989.22
2023-03-21T10:50:05.796Z,96992.25
2023-03-21T10:52:27.910Z,96993.41
2023-03-21T10:54:54.161Z,96990.00
2023-03-21T10:57:20.442Z,96987.97
2023-03-21T10:59:46.771Z,96986.13
2023-03-21T11:02:13.073Z,96988.50
2023-03-21T11:04:39.373Z,96979.69
2023-03-21T11:07:05.630Z,96969.00
2023-03-21T11:09:31.932Z,96974.97
2023-03-21T11:11:58.211Z,96979.38
2023-03-21T11:14:24.468Z,96981.00
2023-03-21T11:16:51.059Z,96970.56
2023-03-21T11:19:17.383Z,96969.88
2023-03-21T11:21:43.677Z,96962.91
2023-03-21T11:24:09.959Z,96961.75
2023-03-21T11:26:36.227Z,96966.31
2023-03-21T11:29:02.522Z,96961.03
2023-03-21T11:31:28.818Z,96971.59
2023-03-21T11:33:55.178Z,96950.72
2023-03-21T11:36:21.449Z,96964.72
2023-03-21T11:38:47.721Z,96944.66
2023-03-21T11:41:14.044Z,96946.31
2023-03-21T11:43:40.314Z,96954.88
2023-03-21T11:46:06.931Z,96936.91
2023-03-21T11:48:33.214Z,96939.06
2023-03-21T11:50:59.519Z,96930.78
2023-03-21T11:53:25.839Z,96924.06
2023-03-21T11:55:52.094Z,96917.34
2023-03-21T11:58:18.359Z,96919.81
2023-03-21T12:00:44.628Z,96917.69
2023-03-21T12:03:10.897Z,96915.59
2023-03-21T12:05:37.641Z,96904.56
2023-03-21T12:08:04.050Z,96903.22
2023-03-21T12:10:30.319Z,96903.50
2023-03-21T12:12:56.592Z,96902.16
2023-03-21T12:15:22.841Z,96899.22
2023-03-21T12:17:49.103Z,96888.44
2023-03-21T12:20:15.389Z,96885.75
2023-03-21T12:22:41.640Z,96871.50
2023-03-21T12:25:07.941Z,96869.63
2023-03-21T12:27:34.222Z,96867.22
2023-03-21T12:30:00.486Z,96859.41
2023-03-21T12:32:26.763Z,96852.16
2023-03-21T12:34:53.066Z,96851.06
2023-03-21T12:37:19.313Z,96854.84
2023-03-21T12:39:45.551Z,96852.41
2023-03-21T12:42:11.840Z,96841.91
2023-03-21T12:44:38.144Z,96846.22
2023-03-21T12:47:04.472Z,96842.69
2023-03-21T12:49:30.758Z,96834.91
2023-03-21T12:51:57.053Z,96829.00
2023-03-21T12:54:23.374Z,96842.44
2023-03-21T12:56:49.672Z,96835.44
2023-03-21T12:59:15.951Z,96837.31
2023-03-21T13:01:42.203Z,96825.72
2023-03-21T13:04:08.570Z,96832.69
2023-03-21T13:06:34.894Z,96831.88
2023-03-21T13:09:01.159Z,96829.72
2023-03-21T13:11:27.442Z,96825.66
2023-03-21T13:13:53.706Z,96829.44
2023-03-21T13:16:20.020Z,96839.38
2023-03-21T13:18:46.362Z,96830.00
2023-03-21T13:21:12.707Z,96831.56
2023-03-21T13:23:38.966Z,96818.00
2023-03-21T13:26:05.206Z,96820.19
2023-03-21T13:28:31.461Z,96816.91
2023-03-21T13:30:57.729Z,96807.50
2023-03-21T13:33:24.042Z,96808.06
2023-03-21T13:35:50.488Z,96803.22
2023-03-21T13:38:16.832Z,96791.56
2023-03-21T13:40:43.137Z,96802.88
2023-03-21T13:43:11.968Z,96792.84
2023-03-21T13:45:40.371Z,96790.28
2023-03-21T13:48:06.856Z,96791.13
2023-03-21T13:50:33.168Z,96787.09
2023-03-21T13:52:59.439Z,96782.47
2023-03-21T13:55:25.694Z,96780.81
2023-03-21T13:57:52.007Z,96775.97
2023-03-21T14:00:18.303Z,96770.06
2023-03-21T14:02:44.577Z,96775.84
2023-03-21T14:05:10.942Z,96775.91
2023-03-21T14:07:37.256Z,96774.81
2023-03-21T14:10:05.046Z,96761.31
2023-03-21T14:12:32.103Z,96758.53
2023-03-21T14:15:06.800Z,96756.47
2023-03-21T14:17:36.678Z,96762.03
2023-03-21T14:20:02.982Z,96754.53
2023-03-21T14:22:29.257Z,96756.88
2023-03-21T14:24:55.505Z,96760.03
2023-03-21T14:27:21.761Z,96755.41
2023-03-21T14:29:48.053Z,96761.53
2023-03-21T14:32:14.292Z,96761.50
2023-03-21T14:34:42.064Z,96760.66
2023-03-21T14:37:09.656Z,96754.66
2023-03-21T14:39:35.929Z,96748.94
2023-03-21T14:42:02.214Z,96747.31
2023-03-21T14:44:28.467Z,96736.81
2023-03-21T14:46:54.724Z,96744.63
2023-03-21T14:49:20.996Z,96742.41
2023-03-21T14:51:47.262Z,96742.97
2023-03-21T14:54:13.523Z,96738.59
2023-03-21T14:56:39.776Z,96731.31
2023-03-21T14:59:06.041Z,96738.50
2023-03-21T15:01:32.330Z,96734.19
2023-03-21T15:04:00.458Z,96725.81
2023-03-21T15:06:26.901Z,96739.78
2023-03-21T15:08:53.175Z,96736.56
2023-03-21T15:11:19.422Z,96736.28
2023-03-21T15:13:45.702Z,96740.59
2023-03-21T15:16:12.013Z,96738.16
2023-03-21T15:18:38.394Z,96737.38
2023-03-21T15:21:04.652Z,96736.28
2023-03-21T15:23:30.918Z,96733.06
2023-03-21T15:25:57.253Z,96728.81
2023-03-21T15:28:23.496Z,96725.75
2023-03-21T15:30:49.769Z,96732.25
2023-03-21T15:33:16.101Z,96728.22
2023-03-21T15:35:42.861Z,96740.25
2023-03-21T15:38:09.303Z,96735.50
2023-03-21T15:40:35.705Z,96730.78
2023-03-21T15:43:02.010Z,96734.59
2023-03-21T15:45:28.267Z,96737.34
2023-03-21T15:47:54.595Z,96738.19
2023-03-21T15:50:20.860Z,96735.56
2023-03-21T15:52:47.133Z,96738.06
2023-03-21T15:55:13.417Z,96739.72
2023-03-21T15:57:39.686Z,96740.81
2023-03-21T16:00:05.948Z,96744.34
2023-03-21T16:02:32.214Z,96742.44
2023-03-21T16:04:58.465Z,96745.16
2023-03-21T16:07:24.722Z,96739.75
2023-03-21T16:09:50.979Z,96730.88
2023-03-21T16:12:18.928Z,96735.47
2023-03-21T16:14:45.307Z,96737.34
2023-03-21T16:17:11.562Z,96736.00
2023-03-21T16:19:37.829Z,96740.28
2023-03-21T16:22:04.138Z,96743.22
2023-03-21T16:24:30.423Z,96742.13
2023-03-21T16:26:56.710Z,96741.84
2023-03-21T16:29:23.009Z,96735.94
2023-03-21T16:31:49.351Z,96737.03
2023-03-21T16:34:15.707Z,96739.19
2023-03-21T16:36:41.957Z,96740.56
2023-03-21T16:39:09.429Z,96739.50
2023-03-21T16:41:35.723Z,96742.50
2023-03-21T16:44:01.961Z,96744.66
2023-03-21T16:46:28.259Z,96740.59
2023-03-21T16:48:54.543Z,96739.28
2023-03-21T16:51:20.803Z,96736.59
2023-03-21T16:53:47.093Z,96741.44
2023-03-21T16:56:13.371Z,96740.34
2023-03-21T16:58:39.642Z,96740.91
2023-03-21T17:01:05.950Z,96738.78
2023-03-21T17:03:32.279Z,96756.03
2023-03-21T17:05:58.571Z,96751.44
2023-03-21T17:08:24.838Z,96752.53
2023-03-21T17:10:51.106Z,96760.31
2023-03-21T17:13:17.407Z,96760.59
2023-03-21T17:15:43.715Z,96766.28
2023-03-21T17:18:10.051Z,96764.94
2023-03-21T17:20:36.707Z,96766.81
2023-03-21T17:23:03.209Z,96764.16
2023-03-21T17:25:29.487Z,96766.88
2023-03-21T17:27:55.857Z,96766.63
2023-03-21T17:30:22.184Z,96769.59
2023-03-21T17:32:48.470Z,96775.53
2023-03-21T17:35:14.958Z,96770.72
2023-03-21T17:37:41.257Z,96762.66
2023-03-21T17:40:07.717Z,96761.88
2023-03-21T17:42:34.076Z,96763.22
2023-03-21T17:45:00.335Z,96761.38
2023-03-21T17:47:26.604Z,96779.38
2023-03-21T17:49:52.911Z,96773.72
2023-03-21T17:52:19.211Z,96775.09
2023-03-21T17:54:45.495Z,96769.97
2023-03-21T17:57:11.749Z,96785.59
2023-03-21T17:59:38.051Z,96773.22
2023-03-21T18:02:04.384Z,96779.41
2023-03-21T18:04:30.702Z,96784.00
2023-03-21T18:06:57.437Z,96785.88
2023-03-21T18:09:23.766Z,96787.25
2023-03-21T18:11:50.157Z,96793.44
2023-03-21T18:14:19.209Z,96790.50
2023-03-21T18:16:47.841Z,96788.34
2023-03-21T18:19:14.156Z,96781.34
2023-03-21T18:21:40.426Z,96785.41
2023-03-21T18:24:06.753Z,96782.16
2023-03-21T18:26:33.079Z,96784.34
2023-03-21T18:32:02.558Z,96773.31
2023-03-21T18:34:31.535Z,96768.22
2023-03-21T18:36:57.822Z,96770.38
2023-03-21T18:39:24.102Z,96775.22
2023-03-21T18:41:50.350Z,96779.50
2023-03-21T18:44:22.106Z,96773.06
2023-03-21T18:46:51.320Z,96783.81
2023-03-21T18:52:03.856Z,96785.97
2023-03-21T18:54:30.153Z,96788.13
2023-03-21T18:59:42.685Z,96788.16
2023-03-21T19:02:09.025Z,96788.16
2023-03-21T19:04:35.381Z,96793.53
2023-03-21T19:07:02.272Z,96797.03
2023-03-21T19:09:32.001Z,96795.94
2023-03-21T19:11:58.508Z,96801.59
2023-03-21T19:14:24.828Z,96803.22
2023-03-21T19:19:37.410Z,96801.63
2023-03-21T19:22:03.729Z,96811.03
2023-03-21T19:24:30.076Z,96807.78
2023-03-21T19:26:56.365Z,96806.44
2023-03-21T19:29:22.646Z,96806.69
2023-03-21T19:31:48.989Z,96805.88
2023-03-21T19:34:15.298Z,96808.84
2023-03-21T19:36:45.523Z,96819.56
2023-03-21T19:39:15.579Z,96817.41
2023-03-21T19:41:42.650Z,96817.69
2023-03-21T19:44:08.930Z,96811.22
2023-03-21T19:46:35.198Z,96808.81
2023-03-21T19:49:01.541Z,96810.13
2023-03-21T19:51:30.052Z,96809.59
2023-03-21T19:53:57.018Z,96808.25
2023-03-21T19:56:26.742Z,96806.38
2023-03-21T19:58:53.839Z,96804.75
2023-03-21T20:01:20.292Z,96804.50
2023-03-21T20:03:46.577Z,96800.72
2023-03-21T20:06:12.843Z,96803.69
2023-03-21T20:09:05.438Z,96798.84
2023-03-21T20:11:25.493Z,96795.09
2023-03-21T20:13:51.806Z,96799.09
2023-03-21T20:16:18.153Z,96799.63
2023-03-21T20:18:44.467Z,96801.78
2023-03-21T20:21:17.765Z,96802.59
2023-03-21T20:23:44.644Z,96805.28
2023-03-21T20:26:10.952Z,96820.84
2023-03-21T20:28:38.194Z,96816.53
2023-03-21T20:31:04.654Z,96823.75
2023-03-21T20:33:31.040Z,96824.53
2023-03-21T20:38:46.603Z,96826.63
2023-03-21T20:41:12.975Z,96821.78
2023-03-21T20:46:25.652Z,96813.44
2023-03-21T20:48:51.962Z,96815.06
2023-03-21T20:54:04.529Z,96821.22
2023-03-21T20:56:38.887Z,96816.66
2023-03-21T20:59:16.698Z,96815.03
2023-03-21T21:01:47.091Z,96820.41
2023-03-21T21:04:15.164Z,96812.63
2023-03-21T21:06:41.611Z,96823.09
2023-03-21T21:09:07.960Z,96829.00
2023-03-21T21:14:20.479Z,96814.25
2023-03-21T21:16:46.751Z,96817.47
2023-03-21T21:19:13.024Z,96816.66
2023-03-21T21:21:39.410Z,96805.94
2023-03-21T21:24:07.615Z,96804.59
2023-03-21T21:26:34.051Z,96803.78
2023-03-21T21:29:00.333Z,96804.84
2023-03-21T21:31:26.669Z,96796.53
2023-03-21T21:33:53.017Z,96802.44
2023-03-21T21:36:19.290Z,96805.94
2023-03-21T21:38:45.569Z,96807.56
2023-03-21T21:41:11.824Z,96812.94
2023-03-21T21:43:39.286Z,96818.03
2023-03-21T21:46:05.525Z,96811.84
2023-03-21T21:48:31.800Z,96823.94
2023-03-21T21:50:58.084Z,96817.22
2023-03-21T21:53:24.367Z,96819.09
2023-03-21T21:55:50.642Z,96820.41
2023-03-21T21:58:16.917Z,96811.81
2023-03-21T22:00:43.211Z,96806.44
2023-03-21T22:03:09.603Z,96818.50
2023-03-21T22:05:35.920Z,96809.38
2023-03-21T22:08:02.476Z,96816.91
2023-03-21T22:10:28.738Z,96820.13
2023-03-21T22:12:55.012Z,96816.91
2023-03-21T22:15:21.269Z,96803.75
2023-03-21T22:17:47.540Z,96804.25
2023-03-21T22:20:13.831Z,96815.00
2023-03-21T22:22:40.125Z,96807.22
2023-03-21T22:25:06.427Z,96812.56
2023-03-21T22:27:32.716Z,96809.63
2023-03-21T22:29:58.983Z,96808.81
2023-03-21T22:32:25.278Z,96808.00
2023-03-21T22:34:51.619Z,96808.28
2023-03-21T22:37:17.900Z,96813.09
2023-03-21T22:39:44.180Z,96812.28
2023-03-21T22:42:10.461Z,96810.13
2023-03-21T22:44:36.751Z,96813.06
2023-03-21T22:47:03.032Z,96803.16
2023-03-21T22:49:29.297Z,96803.41
2023-03-21T22:51:55.567Z,96799.91
2023-03-21T22:54:21.871Z,96806.09
2023-03-21T22:56:48.150Z,96800.19
2023-03-21T22:59:14.415Z,96800.19
2023-03-21T23:01:40.680Z,96802.31
2023-03-21T23:04:06.986Z,96807.34
2023-03-21T23:06:33.292Z,96800.91
2023-03-21T23:08:59.550Z,96807.09
2023-03-21T23:11:25.912Z,96805.00
2023-03-21T23:14:06.592Z,96800.44
2023-03-21T23:16:33.736Z,96799.84
2023-03-21T23:19:00.021Z,96805.22
2023-03-21T23:21:26.298Z,96808.97
2023-03-21T23:23:52.613Z,96807.09
2023-03-21T23:26:18.895Z,96798.75
2023-03-21T23:28:45.172Z,96802.50
2023-03-21T23:31:11.573Z,96797.66
2023-03-21T23:33:37.876Z,96797.16
2023-03-21T23:36:04.143Z,96801.69
2023-03-21T23:38:30.394Z,96798.47
2023-03-21T23:40:56.672Z,96803.84
2023-03-21T23:43:22.955Z,96806.53
2023-03-21T23:45:49.242Z,96800.88
2023-03-21T23:48:15.564Z,96798.44
2023-03-21T23:50:42.192Z,96800.56
2023-03-21T23:53:08.507Z,96796.78
2023-03-21T23:55:34.796Z,96789.28
2023-03-21T23:58:01.074Z,96798.38
